sensor_id;sensor_type;location;lat;lon;timestamp;P1;durP1;ratioP1;P2;durP2;ratioP2
13327;SDS011;6733;51.044;3.746;2023-01-01T00:01:11;9.47;;;3.43;;
13327;SDS011;6733;51.044;3.746;2023-01-01T00:03:39;7.07;;;3.43;;
13327;SDS011;6733;51.044;3.746;2023-01-01T00:06:09;5.83;;;3.50;;
13327;SDS011;6733;51.044;3.746;2023-01-01T00:08:37;7.60;;;3.00;;
13327;SDS011;6733;51.044;3.746;2023-01-01T00:11:05;10.17;;;3.57;;
13327;SDS011;6733;51.044;3.746;2023-01-01T00:13:33;5.80;;;3.20;;
13327;SDS011;6733;51.044;3.746;2023-01-01T00:16:07;9.60;;;3.50;;
13327;SDS011;6733;51.044;3.746;2023-01-01T00:18:35;5.50;;;3.93;;
13327;SDS011;6733;51.044;3.746;2023-01-01T00:21:06;8.80;;;3.43;;
13327;SDS011;6733;51.044;3.746;2023-01-01T00:23:35;7.37;;;3.10;;
13327;SDS011;6733;51.044;3.746;2023-01-01T00:26:08;5.60;;;3.33;;
13327;SDS011;6733;51.044;3.746;2023-01-01T00:28:36;11.03;;;3.27;;
13327;SDS011;6733;51.044;3.746;2023-01-01T00:31:06;8.87;;;3.40;;
13327;SDS011;6733;51.044;3.746;2023-01-01T00:33:33;6.17;;;3.30;;
13327;SDS011;6733;51.044;3.746;2023-01-01T00:36:09;6.30;;;3.33;;
13327;SDS011;6733;51.044;3.746;2023-01-01T00:38:37;6.93;;;3.33;;
13327;SDS011;6733;51.044;3.746;2023-01-01T00:41:04;7.63;;;3.13;;
13327;SDS011;6733;51.044;3.746;2023-01-01T00:43:31;7.77;;;3.30;;
13327;SDS011;6733;51.044;3.746;2023-01-01T00:45:57;5.50;;;2.80;;
13327;SDS011;6733;51.044;3.746;2023-01-01T00:48:23;9.63;;;3.23;;
13327;SDS011;6733;51.044;3.746;2023-01-01T00:50:50;5.07;;;2.70;;
13327;SDS011;6733;51.044;3.746;2023-01-01T00:53:17;8.03;;;3.10;;
13327;SDS011;6733;51.044;3.746;2023-01-01T00:55:45;5.60;;;3.37;;
13327;SDS011;6733;51.044;3.746;2023-01-01T00:58:13;7.87;;;3.50;;
13327;SDS011;6733;51.044;3.746;2023-01-01T01:00:40;7.23;;;3.40;;
13327;SDS011;6733;51.044;3.746;2023-01-01T01:03:07;8.13;;;3.20;;
13327;SDS011;6733;51.044;3.746;2023-01-01T01:05:37;8.17;;;3.40;;
13327;SDS011;6733;51.044;3.746;2023-01-01T01:08:03;8.70;;;3.53;;
13327;SDS011;6733;51.044;3.746;2023-01-01T01:10:29;4.33;;;2.73;;
13327;SDS011;6733;51.044;3.746;2023-01-01T01:12:55;7.77;;;3.40;;
13327;SDS011;6733;51.044;3.746;2023-01-01T01:15:21;6.90;;;2.83;;
13327;SDS011;6733;51.044;3.746;2023-01-01T01:17:48;5.20;;;3.27;;
13327;SDS011;6733;51.044;3.746;2023-01-01T01:20:14;8.63;;;3.23;;
13327;SDS011;6733;51.044;3.746;2023-01-01T01:22:40;7.00;;;3.23;;
13327;SDS011;6733;51.044;3.746;2023-01-01T01:25:07;7.23;;;3.33;;
13327;SDS011;6733;51.044;3.746;2023-01-01T01:27:33;7.27;;;3.03;;
13327;SDS011;6733;51.044;3.746;2023-01-01T01:29:59;9.70;;;3.03;;
13327;SDS011;6733;51.044;3.746;2023-01-01T01:32:25;8.23;;;3.00;;
13327;SDS011;6733;51.044;3.746;2023-01-01T01:34:51;6.83;;;2.90;;
13327;SDS011;6733;51.044;3.746;2023-01-01T01:37:17;9.10;;;2.90;;
13327;SDS011;6733;51.044;3.746;2023-01-01T01:39:44;8.03;;;3.03;;
13327;SDS011;6733;51.044;3.746;2023-01-01T01:42:14;4.07;;;3.00;;
13327;SDS011;6733;51.044;3.746;2023-01-01T01:47:31;8.93;;;2.87;;
13327;SDS011;6733;51.044;3.746;2023-01-01T01:50:06;8.77;;;3.30;;
13327;SDS011;6733;51.044;3.746;2023-01-01T01:52:34;6.43;;;2.70;;
13327;SDS011;6733;51.044;3.746;2023-01-01T01:55:03;7.00;;;2.10;;
13327;SDS011;6733;51.044;3.746;2023-01-01T01:57:32;11.67;;;3.17;;
13327;SDS011;6733;51.044;3.746;2023-01-01T01:59:59;12.33;;;3.07;;
13327;SDS011;6733;51.044;3.746;2023-01-01T02:04:58;5.10;;;2.73;;
13327;SDS011;6733;51.044;3.746;2023-01-01T02:07:25;5.80;;;2.93;;
13327;SDS011;6733;51.044;3.746;2023-01-01T02:09:54;5.67;;;3.03;;
13327;SDS011;6733;51.044;3.746;2023-01-01T02:12:21;9.77;;;2.90;;
13327;SDS011;6733;51.044;3.746;2023-01-01T02:14:48;9.27;;;2.70;;
13327;SDS011;6733;51.044;3.746;2023-01-01T02:17:16;6.63;;;2.60;;
13327;SDS011;6733;51.044;3.746;2023-01-01T02:20:27;8.90;;;2.97;;
13327;SDS011;6733;51.044;3.746;2023-01-01T02:29:20;4.20;;;2.60;;
13327;SDS011;6733;51.044;3.746;2023-01-01T02:32:05;7.20;;;2.90;;
13327;SDS011;6733;51.044;3.746;2023-01-01T02:38:32;6.07;;;3.00;;
13327;SDS011;6733;51.044;3.746;2023-01-01T02:41:30;6.83;;;2.80;;
13327;SDS011;6733;51.044;3.746;2023-01-01T02:44:29;7.23;;;3.33;;
13327;SDS011;6733;51.044;3.746;2023-01-01T02:47:26;7.13;;;2.70;;
13327;SDS011;6733;51.044;3.746;2023-01-01T02:50:22;5.93;;;2.83;;
13327;SDS011;6733;51.044;3.746;2023-01-01T02:53:26;6.43;;;2.90;;
13327;SDS011;6733;51.044;3.746;2023-01-01T02:59:52;7.30;;;3.07;;
13327;SDS011;6733;51.044;3.746;2023-01-01T03:02:53;6.73;;;2.70;;
13327;SDS011;6733;51.044;3.746;2023-01-01T03:08:24;8.63;;;2.90;;
13327;SDS011;6733;51.044;3.746;2023-01-01T03:11:06;6.87;;;2.80;;
13327;SDS011;6733;51.044;3.746;2023-01-01T03:13:41;7.70;;;2.83;;
13327;SDS011;6733;51.044;3.746;2023-01-01T03:16:16;5.87;;;2.77;;
13327;SDS011;6733;51.044;3.746;2023-01-01T03:22:07;8.37;;;3.10;;
13327;SDS011;6733;51.044;3.746;2023-01-01T03:30:22;7.83;;;2.90;;
13327;SDS011;6733;51.044;3.746;2023-01-01T03:37:58;6.00;;;2.80;;
13327;SDS011;6733;51.044;3.746;2023-01-01T03:40:26;7.53;;;2.93;;
13327;SDS011;6733;51.044;3.746;2023-01-01T03:42:58;4.63;;;2.57;;
13327;SDS011;6733;51.044;3.746;2023-01-01T03:45:32;8.27;;;3.53;;
13327;SDS011;6733;51.044;3.746;2023-01-01T03:48:05;11.67;;;3.00;;
13327;SDS011;6733;51.044;3.746;2023-01-01T03:50:36;7.67;;;3.10;;
13327;SDS011;6733;51.044;3.746;2023-01-01T03:53:41;7.33;;;2.87;;
13327;SDS011;6733;51.044;3.746;2023-01-01T03:59:00;6.17;;;2.57;;
13327;SDS011;6733;51.044;3.746;2023-01-01T04:01:41;5.90;;;3.03;;
13327;SDS011;6733;51.044;3.746;2023-01-01T04:04:11;6.10;;;2.63;;
13327;SDS011;6733;51.044;3.746;2023-01-01T04:06:39;9.10;;;3.03;;
13327;SDS011;6733;51.044;3.746;2023-01-01T04:09:08;8.40;;;2.90;;
13327;SDS011;6733;51.044;3.746;2023-01-01T04:11:39;6.80;;;2.67;;
13327;SDS011;6733;51.044;3.746;2023-01-01T04:14:40;7.57;;;2.73;;
13327;SDS011;6733;51.044;3.746;2023-01-01T04:17:09;8.70;;;3.23;;
13327;SDS011;6733;51.044;3.746;2023-01-01T04:19:36;8.10;;;2.93;;
13327;SDS011;6733;51.044;3.746;2023-01-01T04:22:03;6.30;;;3.00;;
13327;SDS011;6733;51.044;3.746;2023-01-01T04:24:30;9.20;;;2.83;;
13327;SDS011;6733;51.044;3.746;2023-01-01T04:26:56;12.13;;;3.73;;
13327;SDS011;6733;51.044;3.746;2023-01-01T04:29:22;5.30;;;2.57;;
13327;SDS011;6733;51.044;3.746;2023-01-01T04:31:48;7.70;;;2.77;;
13327;SDS011;6733;51.044;3.746;2023-01-01T04:34:14;8.93;;;3.73;;
13327;SDS011;6733;51.044;3.746;2023-01-01T04:36:41;8.97;;;2.43;;
13327;SDS011;6733;51.044;3.746;2023-01-01T04:39:07;5.90;;;1.80;;
13327;SDS011;6733;51.044;3.746;2023-01-01T04:41:34;4.33;;;1.73;;
13327;SDS011;6733;51.044;3.746;2023-01-01T04:44:00;3.77;;;1.63;;
13327;SDS011;6733;51.044;3.746;2023-01-01T04:46:26;3.87;;;1.43;;
13327;SDS011;6733;51.044;3.746;2023-01-01T04:48:52;5.30;;;2.03;;
13327;SDS011;6733;51.044;3.746;2023-01-01T04:51:19;3.60;;;1.47;;
13327;SDS011;6733;51.044;3.746;2023-01-01T04:53:46;4.93;;;1.57;;
13327;SDS011;6733;51.044;3.746;2023-01-01T04:56:13;4.47;;;1.53;;
13327;SDS011;6733;51.044;3.746;2023-01-01T04:58:46;4.50;;;1.50;;
13327;SDS011;6733;51.044;3.746;2023-01-01T05:01:14;2.93;;;1.20;;
13327;SDS011;6733;51.044;3.746;2023-01-01T05:03:45;4.20;;;2.00;;
13327;SDS011;6733;51.044;3.746;2023-01-01T05:06:12;3.10;;;1.87;;
13327;SDS011;6733;51.044;3.746;2023-01-01T05:08:40;4.80;;;1.70;;
13327;SDS011;6733;51.044;3.746;2023-01-01T05:11:12;5.67;;;1.73;;
13327;SDS011;6733;51.044;3.746;2023-01-01T05:13:40;5.30;;;1.97;;
13327;SDS011;6733;51.044;3.746;2023-01-01T05:16:08;6.33;;;1.83;;
13327;SDS011;6733;51.044;3.746;2023-01-01T05:18:37;5.17;;;1.93;;
13327;SDS011;6733;51.044;3.746;2023-01-01T05:21:04;6.70;;;2.00;;
13327;SDS011;6733;51.044;3.746;2023-01-01T05:23:33;7.03;;;1.90;;
13327;SDS011;6733;51.044;3.746;2023-01-01T05:25:59;5.73;;;2.27;;
13327;SDS011;6733;51.044;3.746;2023-01-01T05:28:34;6.90;;;2.10;;
13327;SDS011;6733;51.044;3.746;2023-01-01T05:31:03;6.77;;;1.80;;
13327;SDS011;6733;51.044;3.746;2023-01-01T05:33:30;7.07;;;2.17;;
13327;SDS011;6733;51.044;3.746;2023-01-01T05:35:57;7.30;;;2.50;;
13327;SDS011;6733;51.044;3.746;2023-01-01T05:38:23;7.43;;;2.33;;
13327;SDS011;6733;51.044;3.746;2023-01-01T05:40:49;7.07;;;2.00;;
13327;SDS011;6733;51.044;3.746;2023-01-01T05:43:15;6.80;;;2.33;;
13327;SDS011;6733;51.044;3.746;2023-01-01T05:45:42;10.93;;;2.63;;
13327;SDS011;6733;51.044;3.746;2023-01-01T05:48:09;5.90;;;2.30;;
13327;SDS011;6733;51.044;3.746;2023-01-01T05:50:35;8.87;;;2.23;;
13327;SDS011;6733;51.044;3.746;2023-01-01T05:53:02;10.83;;;2.50;;
13327;SDS011;6733;51.044;3.746;2023-01-01T05:55:28;8.10;;;2.20;;
13327;SDS011;6733;51.044;3.746;2023-01-01T05:57:55;6.13;;;2.27;;
13327;SDS011;6733;51.044;3.746;2023-01-01T06:00:22;8.87;;;2.13;;
13327;SDS011;6733;51.044;3.746;2023-01-01T06:02:48;7.27;;;2.00;;
13327;SDS011;6733;51.044;3.746;2023-01-01T06:05:16;4.97;;;2.17;;
13327;SDS011;6733;51.044;3.746;2023-01-01T06:07:42;6.20;;;2.23;;
13327;SDS011;6733;51.044;3.746;2023-01-01T06:10:08;8.30;;;2.20;;
13327;SDS011;6733;51.044;3.746;2023-01-01T06:12:35;5.57;;;2.43;;
13327;SDS011;6733;51.044;3.746;2023-01-01T06:15:01;5.87;;;2.40;;
13327;SDS011;6733;51.044;3.746;2023-01-01T06:17:27;7.37;;;2.33;;
13327;SDS011;6733;51.044;3.746;2023-01-01T06:19:53;7.27;;;2.30;;
13327;SDS011;6733;51.044;3.746;2023-01-01T06:22:19;9.00;;;2.30;;
13327;SDS011;6733;51.044;3.746;2023-01-01T06:24:45;7.63;;;2.10;;
13327;SDS011;6733;51.044;3.746;2023-01-01T06:27:12;7.60;;;2.47;;
13327;SDS011;6733;51.044;3.746;2023-01-01T06:29:38;8.47;;;2.83;;
13327;SDS011;6733;51.044;3.746;2023-01-01T06:32:04;8.27;;;3.43;;
13327;SDS011;6733;51.044;3.746;2023-01-01T06:34:30;7.87;;;2.30;;
13327;SDS011;6733;51.044;3.746;2023-01-01T06:36:56;8.63;;;2.07;;
13327;SDS011;6733;51.044;3.746;2023-01-01T06:39:22;11.60;;;2.80;;
13327;SDS011;6733;51.044;3.746;2023-01-01T06:41:48;7.67;;;2.73;;
13327;SDS011;6733;51.044;3.746;2023-01-01T06:44:14;6.90;;;2.63;;
13327;SDS011;6733;51.044;3.746;2023-01-01T06:46:40;7.87;;;2.93;;
13327;SDS011;6733;51.044;3.746;2023-01-01T06:49:09;11.23;;;3.00;;
13327;SDS011;6733;51.044;3.746;2023-01-01T06:51:37;10.63;;;2.63;;
13327;SDS011;6733;51.044;3.746;2023-01-01T06:54:07;7.47;;;2.20;;
13327;SDS011;6733;51.044;3.746;2023-01-01T06:56:34;9.87;;;2.97;;
13327;SDS011;6733;51.044;3.746;2023-01-01T06:59:00;6.60;;;2.70;;
13327;SDS011;6733;51.044;3.746;2023-01-01T07:01:27;8.47;;;2.43;;
13327;SDS011;6733;51.044;3.746;2023-01-01T07:04:00;9.17;;;2.43;;
13327;SDS011;6733;51.044;3.746;2023-01-01T07:06:28;7.37;;;2.90;;
13327;SDS011;6733;51.044;3.746;2023-01-01T07:08:55;7.70;;;2.30;;
13327;SDS011;6733;51.044;3.746;2023-01-01T07:11:22;10.13;;;2.57;;
13327;SDS011;6733;51.044;3.746;2023-01-01T07:13:48;9.97;;;2.80;;
13327;SDS011;6733;51.044;3.746;2023-01-01T07:16:15;9.90;;;2.60;;
13327;SDS011;6733;51.044;3.746;2023-01-01T07:18:41;8.73;;;2.73;;
13327;SDS011;6733;51.044;3.746;2023-01-01T07:24:01;11.63;;;2.93;;
13327;SDS011;6733;51.044;3.746;2023-01-01T07:26:29;9.30;;;2.77;;
13327;SDS011;6733;51.044;3.746;2023-01-01T07:28:56;6.10;;;2.63;;
13327;SDS011;6733;51.044;3.746;2023-01-01T07:31:23;8.60;;;2.77;;
13327;SDS011;6733;51.044;3.746;2023-01-01T07:33:50;9.30;;;2.87;;
13327;SDS011;6733;51.044;3.746;2023-01-01T07:36:16;9.53;;;2.70;;
13327;SDS011;6733;51.044;3.746;2023-01-01T07:38:42;6.27;;;2.33;;
13327;SDS011;6733;51.044;3.746;2023-01-01T07:41:08;5.97;;;2.50;;
13327;SDS011;6733;51.044;3.746;2023-01-01T07:43:34;10.23;;;3.00;;
13327;SDS011;6733;51.044;3.746;2023-01-01T07:46:00;11.53;;;3.40;;
13327;SDS011;6733;51.044;3.746;2023-01-01T07:48:27;9.43;;;3.23;;
13327;SDS011;6733;51.044;3.746;2023-01-01T07:50:54;10.53;;;3.07;;
13327;SDS011;6733;51.044;3.746;2023-01-01T07:53:20;9.33;;;3.20;;
13327;SDS011;6733;51.044;3.746;2023-01-01T07:55:46;11.60;;;3.30;;
13327;SDS011;6733;51.044;3.746;2023-01-01T07:58:13;9.43;;;3.07;;
13327;SDS011;6733;51.044;3.746;2023-01-01T08:00:39;7.73;;;3.63;;
13327;SDS011;6733;51.044;3.746;2023-01-01T08:03:05;10.17;;;3.50;;
13327;SDS011;6733;51.044;3.746;2023-01-01T08:05:32;13.07;;;3.83;;
13327;SDS011;6733;51.044;3.746;2023-01-01T08:08:00;7.77;;;3.40;;
13327;SDS011;6733;51.044;3.746;2023-01-01T08:10:26;11.70;;;4.00;;
13327;SDS011;6733;51.044;3.746;2023-01-01T08:12:57;11.47;;;4.67;;
13327;SDS011;6733;51.044;3.746;2023-01-01T08:15:27;12.30;;;4.40;;
13327;SDS011;6733;51.044;3.746;2023-01-01T08:18:00;12.17;;;4.37;;
13327;SDS011;6733;51.044;3.746;2023-01-01T08:20:28;9.93;;;3.60;;
13327;SDS011;6733;51.044;3.746;2023-01-01T08:22:56;8.13;;;3.23;;
13327;SDS011;6733;51.044;3.746;2023-01-01T08:25:22;8.03;;;3.67;;
13327;SDS011;6733;51.044;3.746;2023-01-01T08:27:48;8.87;;;4.13;;
13327;SDS011;6733;51.044;3.746;2023-01-01T08:30:14;11.83;;;4.20;;
13327;SDS011;6733;51.044;3.746;2023-01-01T08:32:42;9.60;;;3.80;;
13327;SDS011;6733;51.044;3.746;2023-01-01T08:35:08;10.70;;;4.10;;
13327;SDS011;6733;51.044;3.746;2023-01-01T08:37:34;16.00;;;4.40;;
13327;SDS011;6733;51.044;3.746;2023-01-01T08:40:01;10.43;;;3.93;;
13327;SDS011;6733;51.044;3.746;2023-01-01T08:42:27;11.93;;;3.67;;
13327;SDS011;6733;51.044;3.746;2023-01-01T08:44:53;11.20;;;4.30;;
13327;SDS011;6733;51.044;3.746;2023-01-01T08:47:21;10.97;;;4.03;;
13327;SDS011;6733;51.044;3.746;2023-01-01T08:49:49;13.93;;;3.83;;
13327;SDS011;6733;51.044;3.746;2023-01-01T08:52:15;8.43;;;3.10;;
13327;SDS011;6733;51.044;3.746;2023-01-01T08:54:42;11.67;;;3.93;;
13327;SDS011;6733;51.044;3.746;2023-01-01T08:57:08;10.23;;;3.70;;
13327;SDS011;6733;51.044;3.746;2023-01-01T08:59:35;10.73;;;4.00;;
13327;SDS011;6733;51.044;3.746;2023-01-01T09:02:01;11.27;;;3.53;;
13327;SDS011;6733;51.044;3.746;2023-01-01T09:04:27;16.40;;;5.30;;
13327;SDS011;6733;51.044;3.746;2023-01-01T09:06:54;13.03;;;3.70;;
13327;SDS011;6733;51.044;3.746;2023-01-01T09:09:20;8.77;;;3.70;;
13327;SDS011;6733;51.044;3.746;2023-01-01T09:11:50;8.47;;;3.80;;
13327;SDS011;6733;51.044;3.746;2023-01-01T09:14:17;13.07;;;3.77;;
13327;SDS011;6733;51.044;3.746;2023-01-01T09:16:45;12.03;;;3.87;;
13327;SDS011;6733;51.044;3.746;2023-01-01T09:19:11;7.57;;;3.50;;
13327;SDS011;6733;51.044;3.746;2023-01-01T09:21:38;12.33;;;3.47;;
13327;SDS011;6733;51.044;3.746;2023-01-01T09:24:04;11.93;;;3.90;;
13327;SDS011;6733;51.044;3.746;2023-01-01T09:26:31;13.43;;;3.60;;
13327;SDS011;6733;51.044;3.746;2023-01-01T09:28:57;14.63;;;3.50;;
13327;SDS011;6733;51.044;3.746;2023-01-01T09:31:23;9.77;;;3.53;;
13327;SDS011;6733;51.044;3.746;2023-01-01T09:33:50;9.20;;;3.93;;
13327;SDS011;6733;51.044;3.746;2023-01-01T09:38:48;13.77;;;4.33;;
13327;SDS011;6733;51.044;3.746;2023-01-01T09:41:20;12.43;;;3.57;;
13327;SDS011;6733;51.044;3.746;2023-01-01T09:44:52;12.97;;;3.23;;
13327;SDS011;6733;51.044;3.746;2023-01-01T09:47:51;11.80;;;3.60;;
13327;SDS011;6733;51.044;3.746;2023-01-01T09:50:02;11.57;;;4.27;;
13327;SDS011;6733;51.044;3.746;2023-01-01T09:55:56;10.97;;;3.43;;
13327;SDS011;6733;51.044;3.746;2023-01-01T09:58:42;11.77;;;3.60;;
13327;SDS011;6733;51.044;3.746;2023-01-01T10:04:01;13.00;;;4.07;;
13327;SDS011;6733;51.044;3.746;2023-01-01T10:06:43;8.93;;;3.27;;
13327;SDS011;6733;51.044;3.746;2023-01-01T10:09:25;10.30;;;3.47;;
13327;SDS011;6733;51.044;3.746;2023-01-01T10:11:58;9.93;;;3.40;;
13327;SDS011;6733;51.044;3.746;2023-01-01T10:14:50;10.90;;;4.10;;
13327;SDS011;6733;51.044;3.746;2023-01-01T10:17:28;11.43;;;3.50;;
13327;SDS011;6733;51.044;3.746;2023-01-01T10:20:10;8.80;;;3.33;;
13327;SDS011;6733;51.044;3.746;2023-01-01T10:22:53;8.40;;;3.30;;
13327;SDS011;6733;51.044;3.746;2023-01-01T10:25:26;9.47;;;3.13;;
13327;SDS011;6733;51.044;3.746;2023-01-01T10:28:03;11.07;;;4.33;;
13327;SDS011;6733;51.044;3.746;2023-01-01T10:30:50;12.00;;;3.60;;
13327;SDS011;6733;51.044;3.746;2023-01-01T10:33:23;10.57;;;3.50;;
13327;SDS011;6733;51.044;3.746;2023-01-01T10:35:50;11.33;;;4.00;;
13327;SDS011;6733;51.044;3.746;2023-01-01T10:38:22;10.37;;;3.27;;
13327;SDS011;6733;51.044;3.746;2023-01-01T10:40:55;8.83;;;3.53;;
13327;SDS011;6733;51.044;3.746;2023-01-01T10:43:27;10.77;;;3.20;;
13327;SDS011;6733;51.044;3.746;2023-01-01T10:45:54;13.03;;;3.70;;
13327;SDS011;6733;51.044;3.746;2023-01-01T10:48:24;10.00;;;3.57;;
13327;SDS011;6733;51.044;3.746;2023-01-01T10:55:48;11.87;;;3.67;;
13327;SDS011;6733;51.044;3.746;2023-01-01T11:06:31;7.87;;;3.10;;
13327;SDS011;6733;51.044;3.746;2023-01-01T11:09:01;15.83;;;3.97;;
13327;SDS011;6733;51.044;3.746;2023-01-01T11:11:30;8.27;;;2.70;;
13327;SDS011;6733;51.044;3.746;2023-01-01T11:14:04;8.13;;;3.23;;
13327;SDS011;6733;51.044;3.746;2023-01-01T11:16:59;9.77;;;3.27;;
13327;SDS011;6733;51.044;3.746;2023-01-01T11:22:02;10.33;;;3.40;;
13327;SDS011;6733;51.044;3.746;2023-01-01T11:24:30;7.37;;;3.63;;
13327;SDS011;6733;51.044;3.746;2023-01-01T11:29:49;12.70;;;3.50;;
13327;SDS011;6733;51.044;3.746;2023-01-01T11:32:30;13.03;;;3.57;;
13327;SDS011;6733;51.044;3.746;2023-01-01T11:35:00;11.73;;;4.10;;
13327;SDS011;6733;51.044;3.746;2023-01-01T11:37:31;12.23;;;3.33;;
13327;SDS011;6733;51.044;3.746;2023-01-01T11:40:05;10.43;;;3.90;;
13327;SDS011;6733;51.044;3.746;2023-01-01T11:42:46;9.50;;;3.70;;
13327;SDS011;6733;51.044;3.746;2023-01-01T11:47:54;12.30;;;3.83;;
13327;SDS011;6733;51.044;3.746;2023-01-01T11:50:25;10.23;;;3.37;;
13327;SDS011;6733;51.044;3.746;2023-01-01T12:01:01;7.53;;;3.30;;
13327;SDS011;6733;51.044;3.746;2023-01-01T12:03:39;10.90;;;3.40;;
13327;SDS011;6733;51.044;3.746;2023-01-01T12:11:41;9.23;;;3.07;;
13327;SDS011;6733;51.044;3.746;2023-01-01T12:14:34;12.93;;;3.53;;
13327;SDS011;6733;51.044;3.746;2023-01-01T12:17:16;10.90;;;3.53;;
13327;SDS011;6733;51.044;3.746;2023-01-01T12:19:55;14.13;;;3.70;;
13327;SDS011;6733;51.044;3.746;2023-01-01T12:22:29;11.60;;;3.90;;
13327;SDS011;6733;51.044;3.746;2023-01-01T12:24:55;9.73;;;3.50;;
13327;SDS011;6733;51.044;3.746;2023-01-01T12:27:44;8.27;;;3.40;;
13327;SDS011;6733;51.044;3.746;2023-01-01T12:33:05;10.50;;;3.63;;
13327;SDS011;6733;51.044;3.746;2023-01-01T12:38:27;10.80;;;3.53;;
13327;SDS011;6733;51.044;3.746;2023-01-01T12:43:34;7.90;;;3.43;;
13327;SDS011;6733;51.044;3.746;2023-01-01T12:46:22;12.77;;;3.87;;
13327;SDS011;6733;51.044;3.746;2023-01-01T12:49:05;8.13;;;3.43;;
13327;SDS011;6733;51.044;3.746;2023-01-01T12:51:40;11.40;;;3.67;;
13327;SDS011;6733;51.044;3.746;2023-01-01T12:57:11;12.27;;;3.60;;
13327;SDS011;6733;51.044;3.746;2023-01-01T12:59:47;12.83;;;4.10;;
13327;SDS011;6733;51.044;3.746;2023-01-01T13:02:22;13.23;;;3.83;;
13327;SDS011;6733;51.044;3.746;2023-01-01T13:04:56;11.07;;;3.80;;
13327;SDS011;6733;51.044;3.746;2023-01-01T13:07:34;10.97;;;3.47;;
13327;SDS011;6733;51.044;3.746;2023-01-01T13:10:08;11.00;;;3.30;;
13327;SDS011;6733;51.044;3.746;2023-01-01T13:12:52;11.73;;;3.67;;
13327;SDS011;6733;51.044;3.746;2023-01-01T13:18:06;16.27;;;3.70;;
13327;SDS011;6733;51.044;3.746;2023-01-01T13:20:40;9.87;;;3.13;;
13327;SDS011;6733;51.044;3.746;2023-01-01T13:39:49;12.20;;;4.73;;
13327;SDS011;6733;51.044;3.746;2023-01-01T13:58:52;12.43;;;4.13;;
13327;SDS011;6733;51.044;3.746;2023-01-01T14:01:40;12.60;;;4.10;;
13327;SDS011;6733;51.044;3.746;2023-01-01T14:04:12;10.47;;;3.90;;
13327;SDS011;6733;51.044;3.746;2023-01-01T14:06:55;12.00;;;4.17;;
13327;SDS011;6733;51.044;3.746;2023-01-01T14:09:25;11.53;;;4.00;;
13327;SDS011;6733;51.044;3.746;2023-01-01T14:11:51;11.23;;;4.03;;
13327;SDS011;6733;51.044;3.746;2023-01-01T14:14:27;10.57;;;4.00;;
13327;SDS011;6733;51.044;3.746;2023-01-01T14:16:55;13.90;;;4.30;;
13327;SDS011;6733;51.044;3.746;2023-01-01T14:19:25;14.17;;;4.03;;
13327;SDS011;6733;51.044;3.746;2023-01-01T14:21:52;9.60;;;4.23;;
13327;SDS011;6733;51.044;3.746;2023-01-01T14:24:20;9.03;;;3.80;;
13327;SDS011;6733;51.044;3.746;2023-01-01T14:26:48;12.87;;;4.00;;
13327;SDS011;6733;51.044;3.746;2023-01-01T14:29:20;10.30;;;3.90;;
13327;SDS011;6733;51.044;3.746;2023-01-01T14:31:52;11.17;;;3.93;;
13327;SDS011;6733;51.044;3.746;2023-01-01T14:34:25;8.70;;;3.73;;
13327;SDS011;6733;51.044;3.746;2023-01-01T14:36:54;11.30;;;4.20;;
13327;SDS011;6733;51.044;3.746;2023-01-01T14:39:23;11.37;;;5.10;;
13327;SDS011;6733;51.044;3.746;2023-01-01T14:41:58;10.83;;;4.43;;
13327;SDS011;6733;51.044;3.746;2023-01-01T14:44:38;14.73;;;5.10;;
13327;SDS011;6733;51.044;3.746;2023-01-01T14:47:27;8.77;;;4.17;;
13327;SDS011;6733;51.044;3.746;2023-01-01T14:50:31;15.27;;;4.93;;
13327;SDS011;6733;51.044;3.746;2023-01-01T14:52:53;12.73;;;4.67;;
13327;SDS011;6733;51.044;3.746;2023-01-01T14:55:23;15.00;;;4.50;;
13327;SDS011;6733;51.044;3.746;2023-01-01T14:57:54;13.80;;;4.83;;
13327;SDS011;6733;51.044;3.746;2023-01-01T15:00:25;9.30;;;3.97;;
13327;SDS011;6733;51.044;3.746;2023-01-01T15:02:53;13.73;;;5.20;;
13327;SDS011;6733;51.044;3.746;2023-01-01T15:05:29;12.23;;;4.60;;
13327;SDS011;6733;51.044;3.746;2023-01-01T15:07:58;12.17;;;4.33;;
13327;SDS011;6733;51.044;3.746;2023-01-01T15:10:26;11.20;;;4.80;;
13327;SDS011;6733;51.044;3.746;2023-01-01T15:12:54;12.43;;;4.37;;
13327;SDS011;6733;51.044;3.746;2023-01-01T15:15:38;11.67;;;4.53;;
13327;SDS011;6733;51.044;3.746;2023-01-01T15:18:22;9.80;;;4.30;;
13327;SDS011;6733;51.044;3.746;2023-01-01T15:20:58;9.73;;;4.10;;
13327;SDS011;6733;51.044;3.746;2023-01-01T15:23:25;10.93;;;4.17;;
13327;SDS011;6733;51.044;3.746;2023-01-01T15:25:51;14.27;;;6.50;;
13327;SDS011;6733;51.044;3.746;2023-01-01T15:28:18;7.47;;;4.17;;
13327;SDS011;6733;51.044;3.746;2023-01-01T15:30:50;12.83;;;4.23;;
13327;SDS011;6733;51.044;3.746;2023-01-01T15:33:20;12.57;;;4.87;;
13327;SDS011;6733;51.044;3.746;2023-01-01T15:35:47;10.93;;;5.37;;
13327;SDS011;6733;51.044;3.746;2023-01-01T15:40:41;17.07;;;5.47;;
13327;SDS011;6733;51.044;3.746;2023-01-01T15:45:38;13.27;;;4.67;;
13327;SDS011;6733;51.044;3.746;2023-01-01T15:53:18;16.33;;;5.93;;
13327;SDS011;6733;51.044;3.746;2023-01-01T15:55:56;12.27;;;4.27;;
13327;SDS011;6733;51.044;3.746;2023-01-01T15:58:32;9.93;;;4.30;;
13327;SDS011;6733;51.044;3.746;2023-01-01T16:01:08;12.27;;;4.97;;
13327;SDS011;6733;51.044;3.746;2023-01-01T16:03:38;9.53;;;4.87;;
13327;SDS011;6733;51.044;3.746;2023-01-01T16:06:06;12.27;;;4.70;;
13327;SDS011;6733;51.044;3.746;2023-01-01T16:08:32;11.63;;;4.53;;
13327;SDS011;6733;51.044;3.746;2023-01-01T16:10:59;12.07;;;4.83;;
13327;SDS011;6733;51.044;3.746;2023-01-01T16:13:25;10.10;;;4.67;;
13327;SDS011;6733;51.044;3.746;2023-01-01T16:15:52;13.23;;;5.00;;
13327;SDS011;6733;51.044;3.746;2023-01-01T16:18:32;14.97;;;5.53;;
13327;SDS011;6733;51.044;3.746;2023-01-01T16:21:00;10.50;;;5.00;;
13327;SDS011;6733;51.044;3.746;2023-01-01T16:23:28;11.90;;;4.57;;
13327;SDS011;6733;51.044;3.746;2023-01-01T16:25:55;15.17;;;5.77;;
13327;SDS011;6733;51.044;3.746;2023-01-01T16:28:21;13.70;;;5.30;;
13327;SDS011;6733;51.044;3.746;2023-01-01T16:30:48;11.80;;;4.70;;
13327;SDS011;6733;51.044;3.746;2023-01-01T16:33:16;10.70;;;5.37;;
13327;SDS011;6733;51.044;3.746;2023-01-01T16:35:44;10.33;;;5.10;;
13327;SDS011;6733;51.044;3.746;2023-01-01T16:38:10;12.80;;;5.03;;
13327;SDS011;6733;51.044;3.746;2023-01-01T16:40:36;10.30;;;4.80;;
13327;SDS011;6733;51.044;3.746;2023-01-01T16:43:03;10.57;;;4.87;;
13327;SDS011;6733;51.044;3.746;2023-01-01T16:45:34;10.40;;;5.03;;
13327;SDS011;6733;51.044;3.746;2023-01-01T16:48:00;7.93;;;4.80;;
13327;SDS011;6733;51.044;3.746;2023-01-01T16:50:26;12.33;;;5.60;;
13327;SDS011;6733;51.044;3.746;2023-01-01T16:52:52;10.17;;;5.17;;
13327;SDS011;6733;51.044;3.746;2023-01-01T16:55:18;11.40;;;5.50;;
13327;SDS011;6733;51.044;3.746;2023-01-01T16:57:46;9.00;;;4.60;;
13327;SDS011;6733;51.044;3.746;2023-01-01T17:00:12;10.53;;;4.70;;
13327;SDS011;6733;51.044;3.746;2023-01-01T17:02:39;10.27;;;4.03;;
13327;SDS011;6733;51.044;3.746;2023-01-01T17:05:05;8.07;;;4.10;;
13327;SDS011;6733;51.044;3.746;2023-01-01T17:07:32;9.20;;;4.57;;
13327;SDS011;6733;51.044;3.746;2023-01-01T17:09:58;10.80;;;4.57;;
13327;SDS011;6733;51.044;3.746;2023-01-01T17:12:24;8.00;;;4.00;;
13327;SDS011;6733;51.044;3.746;2023-01-01T17:14:51;8.63;;;4.33;;
13327;SDS011;6733;51.044;3.746;2023-01-01T17:17:17;9.97;;;4.67;;
13327;SDS011;6733;51.044;3.746;2023-01-01T17:19:43;11.47;;;4.50;;
13327;SDS011;6733;51.044;3.746;2023-01-01T17:22:09;8.27;;;4.13;;
13327;SDS011;6733;51.044;3.746;2023-01-01T17:24:35;11.50;;;4.67;;
13327;SDS011;6733;51.044;3.746;2023-01-01T17:27:01;9.03;;;4.47;;
13327;SDS011;6733;51.044;3.746;2023-01-01T17:29:28;20.10;;;14.60;;
13327;SDS011;6733;51.044;3.746;2023-01-01T17:31:54;8.57;;;4.30;;
13327;SDS011;6733;51.044;3.746;2023-01-01T17:34:20;6.47;;;4.23;;
13327;SDS011;6733;51.044;3.746;2023-01-01T17:36:46;8.83;;;4.37;;
13327;SDS011;6733;51.044;3.746;2023-01-01T17:39:13;8.43;;;4.03;;